createdAt,value
2023-02-22T00:01:47.559Z,4.78
2023-02-22T00:04:23.083Z,4.60
2023-02-22T00:06:58.787Z,3.35
2023-02-22T00:09:35.358Z,3.80
2023-02-22T00:12:12.715Z,3.38
2023-02-22T00:14:47.842Z,2.03
2023-02-22T00:17:19.611Z,2.13
2023-02-22T00:19:56.920Z,2.70
2023-02-22T00:22:29.173Z,2.50
2023-02-22T00:24:59.881Z,2.13
2023-02-22T00:27:27.319Z,2.45
2023-02-22T00:30:00.665Z,2.80
2023-02-22T00:32:29.634Z,2.85
2023-02-22T00:35:08.950Z,3.08
2023-02-22T00:40:15.911Z,3.00
2023-02-22T00:42:44.261Z,3.25
2023-02-22T00:47:49.994Z,2.28
2023-02-22T00:50:23.686Z,2.97
2023-02-22T00:52:51.727Z,2.78
2023-02-22T00:55:30.872Z,2.58
2023-02-22T00:57:59.934Z,2.78
2023-02-22T01:00:37.740Z,3.13
2023-02-22T01:03:13.766Z,2.70
2023-02-22T01:05:50.513Z,3.15
2023-02-22T01:08:18.576Z,2.40
2023-02-22T01:10:51.090Z,2.40
2023-02-22T01:13:27.361Z,2.45
2023-02-22T01:16:20.050Z,2.65
2023-02-22T01:19:02.724Z,3.17
2023-02-22T01:22:03.746Z,2.88
2023-02-22T01:24:41.321Z,3.13
2023-02-22T01:27:21.447Z,2.50
2023-02-22T01:29:57.223Z,2.05
2023-02-22T01:32:38.147Z,2.88
2023-02-22T01:35:31.485Z,3.50
2023-02-22T01:38:19.361Z,2.75
2023-02-22T01:41:24.600Z,2.40
2023-02-22T01:43:57.957Z,3.17
2023-02-22T01:46:34.029Z,2.70
2023-02-22T01:49:08.914Z,2.90
2023-02-22T01:52:02.199Z,3.65
2023-02-22T01:54:42.139Z,3.40
2023-02-22T01:57:19.739Z,2.20
2023-02-22T02:00:04.790Z,2.80
2023-02-22T02:02:51.823Z,2.45
2023-02-22T02:05:31.503Z,2.53
2023-02-22T02:08:19.587Z,2.85
2023-02-22T02:10:57.221Z,2.13
2023-02-22T02:13:55.596Z,2.63
2023-02-22T02:16:36.219Z,2.10
2023-02-22T02:19:32.887Z,2.95
2023-02-22T02:23:00.350Z,3.20
2023-02-22T02:26:07.577Z,2.53
2023-02-22T02:29:01.969Z,2.42
2023-02-22T02:32:03.531Z,2.47
2023-02-22T02:34:59.974Z,2.35
2023-02-22T02:38:02.434Z,2.70
2023-02-22T02:40:44.849Z,2.20
2023-02-22T02:43:53.797Z,2.97
2023-02-22T02:46:34.160Z,2.75
2023-02-22T02:49:21.759Z,2.65
2023-02-22T02:51:55.180Z,2.88
2023-02-22T02:57:16.602Z,2.20
2023-02-22T02:59:57.171Z,1.88
2023-02-22T03:02:48.534Z,2.97
2023-02-22T03:06:07.737Z,2.92
2023-02-22T03:08:40.216Z,2.63
2023-02-22T03:11:31.131Z,2.85
2023-02-22T03:14:56.085Z,3.20
2023-02-22T03:18:06.168Z,2.78
2023-02-22T03:20:48.410Z,3.40
2023-02-22T03:23:43.786Z,3.75
2023-02-22T03:26:33.696Z,2.80
2023-02-22T03:29:28.949Z,2.67
2023-02-22T03:32:07.861Z,2.58
2023-02-22T03:37:17.672Z,2.92
2023-02-22T03:39:50.761Z,2.85
2023-02-22T03:42:38.068Z,3.05
2023-02-22T03:45:14.295Z,2.70
2023-02-22T03:47:50.283Z,2.97
2023-02-22T03:50:25.949Z,2.72
2023-02-22T03:53:01.046Z,2.30
2023-02-22T03:55:31.565Z,3.13
2023-02-22T03:58:05.009Z,3.78
2023-02-22T04:00:34.925Z,3.88
2023-02-22T04:03:19.251Z,3.60
2023-02-22T04:05:52.273Z,2.70
2023-02-22T04:08:25.566Z,3.20
2023-02-22T04:11:09.773Z,3.72
2023-02-22T04:13:41.919Z,3.35
2023-02-22T04:16:14.608Z,3.42
2023-02-22T04:18:43.691Z,3.03
2023-02-22T04:21:17.927Z,2.95
2023-02-22T04:24:04.045Z,3.08
2023-02-22T04:26:38.535Z,3.50
2023-02-22T04:29:13.211Z,2.70
2023-02-22T04:31:49.501Z,3.13
2023-02-22T04:34:17.110Z,3.15
2023-02-22T04:36:47.231Z,3.28
2023-02-22T04:39:18.525Z,2.28
2023-02-22T04:41:48.307Z,2.72
2023-02-22T04:44:18.531Z,2.42
2023-02-22T04:47:06.381Z,2.45
2023-02-22T04:49:38.926Z,2.50
2023-02-22T04:52:10.444Z,3.08
2023-02-22T04:54:44.937Z,2.72
2023-02-22T04:57:14.626Z,2.90
2023-02-22T04:59:48.781Z,3.00
2023-02-22T05:02:25.210Z,2.83
2023-02-22T05:04:58.999Z,2.45
2023-02-22T05:07:26.755Z,2.78
2023-02-22T05:09:59.909Z,2.67
2023-02-22T05:12:32.291Z,2.92
2023-02-22T05:15:03.956Z,2.28
2023-02-22T05:17:40.455Z,2.80
2023-02-22T05:20:49.385Z,2.13
2023-02-22T05:23:24.692Z,2.67
2023-02-22T05:26:11.264Z,2.75
2023-02-22T05:28:46.919Z,2.90
2023-02-22T05:31:29.954Z,2.88
2023-02-22T05:34:24.654Z,3.20
2023-02-22T05:40:04.641Z,2.78
2023-02-22T05:43:08.336Z,2.60
2023-02-22T05:45:40.062Z,2.22
2023-02-22T05:48:17.297Z,2.13
2023-02-22T05:50:50.159Z,2.67
2023-02-22T05:53:32.754Z,2.10
2023-02-22T05:56:16.300Z,2.33
2023-02-22T05:58:49.689Z,2.60
2023-02-22T06:01:19.784Z,2.40
2023-02-22T06:03:52.728Z,2.15
2023-02-22T06:06:49.240Z,2.67
2023-02-22T06:09:26.767Z,2.53
2023-02-22T06:12:03.802Z,3.08
2023-02-22T06:15:00.869Z,3.42
2023-02-22T06:17:53.909Z,3.28
2023-02-22T06:20:47.345Z,3.10
2023-02-22T06:23:39.674Z,2.55
2023-02-22T06:26:16.516Z,2.40
2023-02-22T06:31:19.390Z,2.40
2023-02-22T06:33:47.370Z,2.42
2023-02-22T06:36:20.168Z,3.22
2023-02-22T06:38:50.597Z,2.95
2023-02-22T06:41:17.974Z,2.78
2023-02-22T06:43:48.223Z,2.35
2023-02-22T06:46:15.424Z,3.15
2023-02-22T06:48:43.116Z,2.88
2023-02-22T06:51:10.926Z,3.03
2023-02-22T06:53:38.068Z,2.83
2023-02-22T06:56:05.698Z,3.25
2023-02-22T06:58:35.786Z,3.40
2023-02-22T07:03:35.992Z,3.10
2023-02-22T07:06:04.326Z,3.80
2023-02-22T07:08:31.439Z,3.65
2023-02-22T07:11:01.384Z,3.47
2023-02-22T07:13:29.711Z,3.42
2023-02-22T07:15:56.753Z,2.97
2023-02-22T07:18:24.137Z,3.10
2023-02-22T07:20:51.252Z,2.60
2023-02-22T07:23:19.223Z,3.30
2023-02-22T07:25:46.362Z,3.55
2023-02-22T07:28:13.398Z,3.28
2023-02-22T07:30:40.734Z,3.05
2023-02-22T07:33:10.231Z,3.10
2023-02-22T07:35:46.545Z,2.90
2023-02-22T07:40:42.716Z,2.45
2023-02-22T07:43:15.781Z,3.15
2023-02-22T07:45:43.808Z,2.47
2023-02-22T07:48:12.526Z,3.13
2023-02-22T07:50:40.618Z,2.42
2023-02-22T07:53:19.033Z,2.75
2023-02-22T07:55:47.695Z,2.33
2023-02-22T07:58:15.742Z,2.60
2023-02-22T08:00:50.706Z,2.22
2023-02-22T08:03:24.080Z,3.10
2023-02-22T08:05:54.209Z,2.70
2023-02-22T08:08:22.291Z,2.58
2023-02-22T08:10:51.693Z,2.15
2023-02-22T08:13:26.509Z,2.58
2023-02-22T08:15:56.631Z,2.35
2023-02-22T08:18:27.470Z,2.17
2023-02-22T08:21:05.145Z,2.50
2023-02-22T08:23:36.271Z,2.40
2023-02-22T08:26:09.599Z,2.88
2023-02-22T08:28:37.441Z,2.00
2023-02-22T08:31:11.479Z,2.67
2023-02-22T08:33:41.592Z,2.10
2023-02-22T08:36:09.428Z,2.70
2023-02-22T08:38:46.184Z,2.85
2023-02-22T08:41:13.279Z,2.28
2023-02-22T08:43:43.516Z,1.48
2023-02-22T08:46:13.338Z,2.30
2023-02-22T08:48:53.737Z,2.00
2023-02-22T08:51:22.379Z,2.58
2023-02-22T08:53:51.958Z,2.17
2023-02-22T08:56:23.248Z,2.17
2023-02-22T08:58:50.581Z,2.40
2023-02-22T09:01:27.946Z,2.30
2023-02-22T09:03:59.363Z,2.40
2023-02-22T09:06:30.051Z,2.10
2023-02-22T09:08:57.799Z,2.10
2023-02-22T09:11:26.389Z,1.85
2023-02-22T09:13:53.876Z,2.40
2023-02-22T09:16:22.069Z,2.17
2023-02-22T09:18:52.239Z,2.10
2023-02-22T09:23:53.140Z,2.15
2023-02-22T09:26:26.101Z,2.00
2023-02-22T09:28:53.767Z,1.60
2023-02-22T09:31:24.372Z,2.00
2023-02-22T09:33:51.989Z,2.10
2023-02-22T09:36:21.699Z,2.25
2023-02-22T09:38:52.321Z,2.40
2023-02-22T09:41:38.478Z,2.10
2023-02-22T09:44:18.348Z,1.95
2023-02-22T09:46:46.098Z,2.28
2023-02-22T09:49:15.973Z,2.25
2023-02-22T09:51:58.028Z,2.50
2023-02-22T09:54:39.611Z,2.38
2023-02-22T09:57:17.823Z,2.35
2023-02-22T10:00:21.486Z,2.40
2023-02-22T10:02:52.114Z,2.30
2023-02-22T10:05:39.928Z,1.98
2023-02-22T10:08:20.465Z,2.20
2023-02-22T10:10:57.993Z,2.00
2023-02-22T10:13:28.426Z,2.08
2023-02-22T10:16:37.752Z,1.90
2023-02-22T10:19:39.124Z,1.92
2023-02-22T10:22:12.643Z,2.40
2023-02-22T10:25:09.573Z,2.03
2023-02-22T10:27:42.417Z,2.30
2023-02-22T10:30:26.678Z,2.05
2023-02-22T10:33:27.016Z,2.10
2023-02-22T10:35:58.693Z,1.92
2023-02-22T10:38:31.828Z,2.17
2023-02-22T10:41:11.221Z,2.13
2023-02-22T10:43:43.121Z,2.10
2023-02-22T10:46:18.554Z,2.08
2023-02-22T10:48:50.020Z,2.35
2023-02-22T10:51:17.218Z,2.38
2023-02-22T10:53:53.514Z,2.13
2023-02-22T10:56:24.314Z,2.03
2023-02-22T10:59:04.496Z,2.63
2023-02-22T11:01:31.880Z,2.83
2023-02-22T11:04:11.081Z,2.53
2023-02-22T11:06:44.299Z,2.30
2023-02-22T11:09:25.084Z,2.75
2023-02-22T11:12:22.129Z,2.22
2023-02-22T11:14:58.063Z,2.30
2023-02-22T11:17:35.709Z,2.03
2023-02-22T11:20:25.630Z,2.60
2023-02-22T11:23:06.263Z,2.55
2023-02-22T11:25:38.414Z,2.40
2023-02-22T11:30:51.969Z,1.98
2023-02-22T11:33:30.229Z,2.88
2023-02-22T11:36:16.032Z,2.92
2023-02-22T11:38:59.138Z,4.25
2023-02-22T11:41:30.786Z,3.85
2023-02-22T11:44:36.704Z,4.70
2023-02-22T11:47:07.062Z,4.07
2023-02-22T11:49:42.790Z,5.03
2023-02-22T11:52:27.081Z,4.10
2023-02-22T11:55:06.729Z,4.22
2023-02-22T11:57:47.617Z,4.90
2023-02-22T12:00:47.655Z,4.55
2023-02-22T12:03:44.963Z,4.30
2023-02-22T12:06:42.060Z,3.53
2023-02-22T12:09:26.888Z,4.55
2023-02-22T12:12:09.297Z,3.13
2023-02-22T12:15:07.571Z,2.85
2023-02-22T12:18:00.567Z,3.75
2023-02-22T12:20:42.958Z,2.95
2023-02-22T12:23:23.735Z,3.03
2023-02-22T12:26:16.826Z,2.70
2023-02-22T12:29:14.679Z,3.08
2023-02-22T12:32:02.644Z,3.25
2023-02-22T12:35:25.062Z,2.88
2023-02-22T12:38:13.839Z,2.75
2023-02-22T12:41:00.647Z,2.92
2023-02-22T12:44:09.515Z,3.05
2023-02-22T12:46:56.143Z,2.30
2023-02-22T12:49:43.439Z,3.30
2023-02-22T12:52:30.830Z,3.22
2023-02-22T12:55:18.471Z,2.58
2023-02-22T12:58:14.938Z,2.20
2023-02-22T13:00:50.644Z,2.75
2023-02-22T13:03:30.465Z,2.25
2023-02-22T13:06:20.470Z,2.30
2023-02-22T13:08:59.424Z,2.28
2023-02-22T13:11:49.582Z,2.30
2023-02-22T13:14:17.171Z,2.50
2023-02-22T13:17:11.336Z,2.63
2023-02-22T13:20:06.237Z,2.95
2023-02-22T13:22:53.592Z,2.72
2023-02-22T13:25:21.998Z,2.13
2023-02-22T13:28:01.108Z,2.30
2023-02-22T13:30:36.673Z,2.22
2023-02-22T13:33:33.957Z,2.30
2023-02-22T13:36:34.188Z,2.70
2023-02-22T13:39:31.729Z,2.00
2023-02-22T13:42:26.273Z,2.20
2023-02-22T13:45:35.213Z,2.63
2023-02-22T13:49:05.428Z,2.80
2023-02-22T13:52:01.533Z,2.03
2023-02-22T13:54:43.036Z,2.10
2023-02-22T13:57:38.108Z,2.88
2023-02-22T14:00:16.374Z,2.60
2023-02-22T14:03:20.594Z,2.03
2023-02-22T14:06:08.489Z,2.10
2023-02-22T14:08:59.763Z,2.08
2023-02-22T14:11:44.425Z,2.28
2023-02-22T14:14:42.715Z,2.20
2023-02-22T14:22:07.242Z,2.33
2023-02-22T14:24:46.818Z,2.13
2023-02-22T14:27:17.672Z,2.05
2023-02-22T14:30:00.687Z,1.88
2023-02-22T14:33:35.561Z,1.77
2023-02-22T14:36:43.583Z,2.08
2023-02-22T14:39:53.429Z,2.00
2023-02-22T14:42:31.692Z,2.10
2023-02-22T14:45:10.412Z,2.22
2023-02-22T14:47:43.951Z,2.30
2023-02-22T14:50:49.806Z,2.50
2023-02-22T14:53:38.588Z,2.20
2023-02-22T14:56:11.769Z,2.25
2023-02-22T14:58:48.090Z,2.30
2023-02-22T15:01:48.906Z,1.65
2023-02-22T15:04:30.450Z,2.40
2023-02-22T15:07:15.342Z,1.98
2023-02-22T15:09:46.566Z,1.70
2023-02-22T15:12:26.719Z,2.20
2023-02-22T15:15:27.590Z,2.30
2023-02-22T15:17:56.640Z,1.67
2023-02-22T15:20:29.862Z,2.67
2023-02-22T15:23:02.520Z,2.30
2023-02-22T15:25:43.783Z,1.85
2023-02-22T15:28:17.740Z,1.92
2023-02-22T15:31:16.850Z,2.13
2023-02-22T15:33:47.246Z,2.50
2023-02-22T15:36:19.130Z,1.95
2023-02-22T15:38:53.279Z,1.77
2023-02-22T15:41:31.511Z,1.73
2023-02-22T15:44:23.395Z,2.20
2023-02-22T15:46:57.123Z,2.50
2023-02-22T15:49:28.986Z,1.88
2023-02-22T15:52:07.436Z,2.40
2023-02-22T15:54:49.895Z,2.10
2023-02-22T15:57:22.046Z,1.55
2023-02-22T15:59:58.188Z,2.33
2023-02-22T16:02:42.354Z,2.03
2023-02-22T16:05:25.639Z,1.98
2023-02-22T16:08:03.232Z,2.05
2023-02-22T16:10:37.551Z,2.95
2023-02-22T16:22:03.059Z,2.17
2023-02-22T16:24:40.088Z,2.40
2023-02-22T16:27:18.850Z,1.52
2023-02-22T16:30:25.054Z,2.22
2023-02-22T16:33:13.642Z,1.95
2023-02-22T16:37:27.435Z,1.98
2023-02-22T16:41:53.829Z,1.83
2023-02-22T16:52:07.220Z,1.50
2023-02-22T17:12:24.337Z,2.35
2023-02-22T19:26:32.565Z,1.70
2023-02-22T19:29:44.749Z,1.33
2023-02-22T19:39:03.645Z,1.65
2023-02-22T19:47:39.726Z,2.10
2023-02-22T20:26:09.845Z,2.22
2023-02-22T20:33:24.078Z,2.50
2023-02-22T20:37:55.468Z,2.58
2023-02-22T20:41:41.394Z,2.83
2023-02-22T20:54:13.496Z,2.25
2023-02-22T21:01:20.368Z,2.80
2023-02-22T21:04:48.890Z,2.38
2023-02-22T21:58:41.449Z,2.45
2023-02-22T22:13:26.761Z,2.60
2023-02-22T23:31:11.192Z,2.25
2023-02-22T23:37:56.675Z,2.30
